Time;durP1;ratioP1;P1;durP2;ratioP2;P2;SDS_P1;SDS_P2;PMS_P1;PMS_P2;Temp;Humidity;BMP_temperature;BMP_pressure;BME280_temperature;BME280_humidity;BME280_pressure;Samples;Min_cycle;Max_cycle;Signal;HPM_P1;HPM_P2
2021/12/09 00:02:02;;;;;;;1267.35;999.45;;;;;;;-140.79;100.00;63287.88;5047869;28;20495;-60
2021/12/09 00:04:30;;;;;;;1381.35;999.90;;;;;;;-140.79;100.00;63287.88;5047487;28;20036;-59
2021/12/09 00:06:56;;;;;;;1347.97;999.90;;;;;;;-140.79;100.00;63287.88;5047676;28;20031;-53
2021/12/09 00:09:22;;;;;;;1432.47;999.90;;;;;;;-140.79;100.00;63287.88;5047650;28;20025;-58
2021/12/09 00:11:49;;;;;;;1448.05;999.90;;;;;;;-140.79;100.00;63287.88;5047485;28;20510;-57
2021/12/09 00:14:22;;;;;;;1491.07;999.90;;;;;;;-140.79;100.00;63287.88;5047340;28;20111;-55
2021/12/09 00:16:47;;;;;;;1437.20;999.90;;;;;;;-140.79;100.00;63287.88;5047222;28;20067;-52
2021/12/09 00:19:13;;;;;;;1460.60;999.90;;;;;;;-140.79;100.00;63287.88;5047321;28;20025;-54
2021/12/09 00:21:38;;;;;;;1466.30;999.90;;;;;;;-140.79;100.00;63287.88;5047331;28;20503;-54
2021/12/09 00:24:04;;;;;;;1440.13;999.90;;;;;;;-140.79;100.00;63287.88;5047331;28;20033;-53
2021/12/09 00:26:30;;;;;;;1430.97;999.90;;;;;;;-140.79;100.00;63287.88;5047227;28;20110;-59
2021/12/09 00:28:55;;;;;;;1365.72;999.90;;;;;;;-140.79;100.00;63287.88;5047189;28;20040;-57
2021/12/09 00:31:21;;;;;;;1386.82;999.90;;;;;;;-140.79;100.00;63287.88;5047305;28;20564;-53
2021/12/09 00:33:47;;;;;;;1353.40;999.90;;;;;;;-140.79;100.00;63287.88;5047014;28;20577;-58
2021/12/09 00:36:15;;;;;;;1310.80;999.90;;;;;;;-140.79;100.00;63287.88;5047024;28;20119;-57
2021/12/09 00:38:41;;;;;;;1304.50;999.90;;;;;;;-140.79;100.00;63287.88;5046732;28;20025;-60
2021/12/09 00:41:13;;;;;;;1316.28;999.90;;;;;;;-140.79;100.00;63287.88;5046892;28;20037;-55
2021/12/09 00:43:38;;;;;;;1297.63;999.90;;;;;;;-140.79;100.00;63287.88;5046937;28;20049;-58
2021/12/09 00:46:04;;;;;;;1307.32;999.90;;;;;;;-140.79;100.00;63287.88;5046913;28;20067;-59
2021/12/09 00:48:29;;;;;;;1292.53;999.90;;;;;;;-140.79;100.00;63287.88;5046663;28;20119;-53
2021/12/09 00:50:55;;;;;;;1299.20;999.90;;;;;;;-140.79;100.00;63287.88;5045205;28;20085;-57
2021/12/09 00:53:20;;;;;;;1304.78;999.90;;;;;;;-140.79;100.00;63287.88;5046436;28;20033;-54
2021/12/09 00:55:46;;;;;;;1296.93;999.90;;;;;;;-140.79;100.00;63287.88;5046813;28;20032;-56
2021/12/09 00:58:11;;;;;;;1193.82;970.72;;;;;;;-140.79;100.00;63287.88;5046487;28;20037;-56
2021/12/09 01:00:37;;;;;;;1271.75;999.80;;;;;;;-140.79;100.00;63287.88;5047066;28;20037;-57
2021/12/09 01:03:02;;;;;;;1326.63;999.90;;;;;;;-140.79;100.00;63287.88;5046548;28;20103;-57
2021/12/09 01:05:28;;;;;;;1349.95;999.90;;;;;;;-140.79;100.00;63287.88;5046650;28;20766;-55
2021/12/09 01:07:53;;;;;;;1353.97;999.90;;;;;;;-140.79;100.00;63287.88;5045406;28;20507;-59
2021/12/09 01:10:19;;;;;;;1368.82;999.90;;;;;;;-140.79;100.00;63287.88;5046548;28;20121;-58
2021/12/09 01:12:44;;;;;;;1371.28;999.90;;;;;;;-140.79;100.00;63287.88;5046747;28;20060;-57
2021/12/09 01:15:10;;;;;;;1387.45;999.90;;;;;;;-140.79;100.00;63287.88;5046398;28;20037;-60
2021/12/09 01:17:36;;;;;;;1380.75;999.90;;;;;;;-140.79;100.00;63287.88;5046328;28;20060;-55
2021/12/09 01:20:01;;;;;;;1414.15;999.90;;;;;;;-140.79;100.00;63287.88;5046531;28;20129;-60
2021/12/09 01:22:35;;;;;;;1426.13;999.90;;;;;;;-140.79;100.00;63287.88;5045904;28;20051;-55
2021/12/09 01:25:01;;;;;;;1459.00;999.90;;;;;;;-140.79;100.00;63287.88;5046402;28;20106;-58
2021/12/09 01:27:27;;;;;;;1460.90;999.90;;;;;;;-140.79;100.00;63287.88;5046079;28;20480;-59
2021/12/09 01:29:55;;;;;;;1475.82;999.90;;;;;;;-140.79;100.00;63287.88;5046052;28;20859;-60
2021/12/09 01:32:29;;;;;;;1366.00;999.90;;;;;;;-140.79;100.00;63287.88;5045611;28;20031;-57
2021/12/09 01:34:54;;;;;;;1417.95;999.90;;;;;;;-140.79;100.00;63287.88;5045950;28;20561;-58
2021/12/09 01:37:20;;;;;;;1395.65;999.90;;;;;;;-140.79;100.00;63287.88;5045968;28;20017;-59
2021/12/09 01:39:45;;;;;;;1398.57;999.90;;;;;;;-140.79;100.00;63287.88;5045837;28;20036;-59
2021/12/09 01:42:11;;;;;;;1408.95;999.90;;;;;;;-140.79;100.00;63287.88;5045766;28;20045;-59
2021/12/09 01:44:36;;;;;;;1413.63;999.90;;;;;;;-140.79;100.00;63287.88;5045500;28;20059;-60
2021/12/09 01:47:01;;;;;;;1424.10;999.90;;;;;;;-140.79;100.00;63287.88;5045623;28;20041;-60
2021/12/09 01:49:27;;;;;;;1459.28;999.90;;;;;;;-140.79;100.00;63287.88;5045516;28;20131;-55
2021/12/09 01:51:54;;;;;;;1458.30;999.90;;;;;;;-140.79;100.00;63287.88;5045546;28;20102;-60
2021/12/09 01:54:22;;;;;;;1412.22;999.90;;;;;;;-140.79;100.00;63287.88;5045432;28;20430;-59
2021/12/09 01:56:48;;;;;;;1392.30;999.90;;;;;;;-140.79;100.00;63287.88;5045373;28;20037;-60
2021/12/09 01:59:13;;;;;;;1406.07;999.90;;;;;;;-140.79;100.00;63287.88;5045617;28;20040;-60
2021/12/09 02:01:39;;;;;;;1436.15;999.90;;;;;;;-140.79;100.00;63287.88;5044160;28;20033;-58
2021/12/09 02:04:06;;;;;;;1419.28;999.90;;;;;;;-140.79;100.00;63287.88;5044533;28;20036;-60
2021/12/09 02:06:31;;;;;;;1434.78;999.90;;;;;;;-140.79;100.00;63287.88;5043924;28;20111;-56
2021/12/09 02:08:57;;;;;;;1431.43;999.90;;;;;;;-140.79;100.00;63287.88;5045052;28;20037;-54
2021/12/09 02:11:22;;;;;;;1448.30;999.90;;;;;;;-140.79;100.00;63287.88;5045213;28;20548;-60
2021/12/09 02:13:51;;;;;;;1457.93;999.90;;;;;;;-140.79;100.00;63287.88;5044992;28;20048;-53
2021/12/09 02:16:17;;;;;;;1500.93;999.90;;;;;;;-140.79;100.00;63287.88;5045106;28;20067;-55
2021/12/09 02:18:42;;;;;;;1486.82;999.90;;;;;;;-140.79;100.00;63287.88;5046470;28;20242;-58
2021/12/09 02:21:13;;;;;;;1483.97;999.90;;;;;;;-140.79;100.00;63287.88;5042905;28;20030;-60
2021/12/09 02:23:40;;;;;;;1458.35;999.90;;;;;;;-140.79;100.00;63287.88;5037782;28;20499;-60
2021/12/09 02:26:05;;;;;;;1484.55;999.90;;;;;;;-140.79;100.00;63287.88;5045149;28;20044;-59
2021/12/09 02:28:31;;;;;;;1522.18;999.90;;;;;;;-140.79;100.00;63287.88;5045343;28;20040;-60
2021/12/09 02:30:56;;;;;;;1575.80;999.90;;;;;;;-140.79;100.00;63287.88;5040337;28;20056;-57
2021/12/09 02:33:22;;;;;;;1612.45;999.90;;;;;;;-140.79;100.00;63287.88;5034619;28;20091;-59
2021/12/09 02:35:47;;;;;;;1663.40;999.90;;;;;;;-140.79;100.00;63287.88;5045367;28;20495;-59
2021/12/09 02:38:12;;;;;;;1617.65;999.90;;;;;;;-140.79;100.00;63287.88;5043642;28;20029;-60
2021/12/09 02:40:38;;;;;;;1538.05;999.90;;;;;;;-140.79;100.00;63287.88;5044299;28;20037;-54
2021/12/09 02:43:05;;;;;;;1493.65;999.90;;;;;;;-140.79;100.00;63287.88;5044434;28;20033;-60
2021/12/09 02:45:30;;;;;;;1472.82;999.90;;;;;;;-140.79;100.00;63287.88;5044369;28;20119;-56
2021/12/09 02:47:56;;;;;;;1449.47;999.90;;;;;;;-140.79;100.00;63287.88;5044237;28;20060;-59
2021/12/09 02:50:21;;;;;;;1458.20;999.90;;;;;;;-140.79;100.00;63287.88;5044177;28;20525;-54
2021/12/09 02:52:49;;;;;;;1445.45;999.90;;;;;;;-140.79;100.00;63287.88;5044123;28;20094;-55
2021/12/09 02:55:15;;;;;;;1458.95;999.90;;;;;;;-140.79;100.00;63287.88;5044074;28;20033;-55
2021/12/09 02:57:40;;;;;;;1457.63;999.90;;;;;;;-140.79;100.00;63287.88;5044434;28;20380;-53
2021/12/09 03:00:06;;;;;;;1474.82;999.90;;;;;;;-140.79;100.00;63287.88;5044296;28;20422;-58
2021/12/09 03:02:32;;;;;;;1498.82;999.90;;;;;;;-140.79;100.00;63287.88;5042499;28;20578;-51
2021/12/09 03:04:59;;;;;;;1523.25;999.90;;;;;;;-140.79;100.00;63287.88;5043971;28;20039;-55
2021/12/09 03:07:27;;;;;;;1473.18;999.90;;;;;;;-140.79;100.00;63287.88;5044415;28;20191;-57
2021/12/09 03:09:55;;;;;;;1517.88;999.90;;;;;;;-140.79;100.00;63287.88;5044183;28;20439;-58
2021/12/09 03:12:33;;;;;;;1561.55;999.90;;;;;;;-140.79;100.00;63287.88;5043982;28;20035;-54
2021/12/09 03:14:59;;;;;;;1577.38;999.90;;;;;;;-140.79;100.00;63287.88;5043830;28;20036;-61
2021/12/09 03:17:24;;;;;;;1561.63;999.90;;;;;;;-140.79;100.00;63287.88;5043859;28;20062;-57
2021/12/09 03:19:50;;;;;;;1583.90;999.90;;;;;;;-140.79;100.00;63287.88;5044139;28;20120;-53
2021/12/09 03:22:16;;;;;;;1586.70;999.90;;;;;;;-140.79;100.00;63287.88;5043608;28;20527;-53
2021/12/09 03:24:41;;;;;;;1551.13;999.90;;;;;;;-140.79;100.00;63287.88;5043746;28;20029;-58
2021/12/09 03:27:07;;;;;;;1573.63;999.90;;;;;;;-140.79;100.00;63287.88;5043685;28;20037;-55
2021/12/09 03:29:32;;;;;;;1530.55;999.90;;;;;;;-140.79;100.00;63287.88;5043810;28;20106;-52
2021/12/09 03:32:00;;;;;;;1523.05;999.90;;;;;;;-140.79;100.00;63287.88;5043469;28;20045;-56
2021/12/09 03:34:28;;;;;;;1502.55;999.90;;;;;;;-140.79;100.00;63287.88;5043393;28;20029;-54
2021/12/09 03:36:54;;;;;;;1480.20;999.90;;;;;;;-140.79;100.00;63287.88;5043649;28;20037;-56
2021/12/09 03:39:21;;;;;;;1478.97;999.90;;;;;;;-140.79;100.00;63287.88;5042564;28;20481;-52
2021/12/09 03:41:48;;;;;;;1523.97;999.90;;;;;;;-140.79;100.00;63287.88;5043632;28;20029;-57
2021/12/09 03:44:14;;;;;;;1544.53;999.90;;;;;;;-140.79;100.00;63287.88;5043706;28;20048;-59
2021/12/09 03:46:39;;;;;;;1561.45;999.90;;;;;;;-140.79;100.00;63287.88;5043309;28;20029;-54
2021/12/09 03:49:05;;;;;;;1557.50;999.90;;;;;;;-140.79;100.00;63287.88;5043722;28;20032;-56
2021/12/09 03:51:30;;;;;;;1564.75;999.90;;;;;;;-140.79;100.00;63287.88;5043540;28;20055;-54
2021/12/09 03:53:56;;;;;;;1555.53;999.90;;;;;;;-140.79;100.00;63287.88;5043511;28;20099;-55
2021/12/09 03:56:21;;;;;;;1514.85;999.90;;;;;;;-140.79;100.00;63287.88;5043468;28;20522;-58
2021/12/09 03:58:47;;;;;;;1430.07;999.90;;;;;;;-140.79;100.00;63287.88;5043709;28;20562;-57
2021/12/09 04:01:12;;;;;;;1581.25;999.90;;;;;;;-140.79;100.00;63287.88;5043498;28;20715;-55
2021/12/09 04:03:38;;;;;;;1597.50;999.90;;;;;;;-140.79;100.00;63287.88;5043528;28;20033;-56
2021/12/09 04:06:03;;;;;;;1572.15;999.90;;;;;;;-140.79;100.00;63287.88;5043081;28;20025;-57
2021/12/09 04:08:28;;;;;;;1491.07;999.90;;;;;;;-140.79;100.00;63287.88;5043424;28;20021;-59
2021/12/09 04:10:54;;;;;;;1658.45;999.90;;;;;;;-140.79;100.00;63287.88;5042340;28;20159;-58
2021/12/09 04:13:19;;;;;;;1582.43;999.90;;;;;;;-140.79;100.00;63287.88;5041818;28;20048;-51
2021/12/09 04:15:45;;;;;;;1522.05;999.90;;;;;;;-140.79;100.00;63287.88;5043448;28;20045;-55
2021/12/09 04:18:11;;;;;;;1545.43;999.90;;;;;;;-140.79;100.00;63287.88;5043276;28;20029;-53
2021/12/09 04:20:37;;;;;;;1564.75;999.90;;;;;;;-140.79;100.00;63287.88;5043360;28;20056;-53
2021/12/09 04:23:03;;;;;;;1568.05;999.90;;;;;;;-140.79;100.00;63287.88;5043374;28;20558;-53
2021/12/09 04:25:29;;;;;;;1548.88;999.90;;;;;;;-140.79;100.00;63287.88;5043393;28;20040;-60
2021/12/09 04:27:55;;;;;;;1545.72;999.90;;;;;;;-140.79;100.00;63287.88;5045602;28;20088;-56
2021/12/09 04:30:22;;;;;;;1526.78;999.90;;;;;;;-140.79;100.00;63287.88;5046759;28;20114;-53
2021/12/09 04:32:48;;;;;;;1531.60;999.90;;;;;;;-140.79;100.00;63287.88;5046600;28;20051;-55
2021/12/09 04:35:14;;;;;;;1565.45;999.90;;;;;;;-140.79;100.00;63287.88;5046987;28;20033;-58
2021/12/09 04:37:39;;;;;;;1526.00;999.90;;;;;;;-140.79;100.00;63287.88;5046747;28;20032;-55
2021/12/09 04:40:06;;;;;;;1533.60;999.90;;;;;;;-140.79;100.00;63287.88;5047284;28;20044;-58
2021/12/09 04:42:31;;;;;;;1532.68;999.90;;;;;;;-140.79;100.00;63287.88;5046616;28;20040;-57
2021/12/09 04:44:57;;;;;;;1538.38;999.90;;;;;;;-140.79;100.00;63287.88;5046715;28;20033;-52
2021/12/09 04:47:22;;;;;;;1533.03;999.90;;;;;;;-140.79;100.00;63287.88;5046678;28;20075;-59
2021/12/09 04:49:48;;;;;;;1523.90;999.90;;;;;;;-140.79;100.00;63287.88;5046784;28;20418;-60
2021/12/09 04:52:13;;;;;;;1386.30;999.90;;;;;;;-140.79;100.00;63287.88;5046441;28;20616;-58
2021/12/09 04:54:41;;;;;;;1333.90;999.90;;;;;;;-140.79;100.00;63287.88;5045082;28;20037;-55
2021/12/09 04:57:10;;;;;;;1367.88;999.90;;;;;;;-140.79;100.00;63287.88;5046649;28;20056;-57
2021/12/09 04:59:36;;;;;;;1369.93;999.90;;;;;;;-140.79;100.00;63287.88;5048792;28;21175;-60
2021/12/09 05:02:02;;;;;;;1376.47;999.90;;;;;;;-140.79;100.00;63287.88;5049091;28;20036;-57
2021/12/09 05:04:28;;;;;;;1363.15;999.90;;;;;;;-140.79;100.00;63287.88;5047602;28;20094;-57
2021/12/09 05:06:54;;;;;;;1383.65;999.90;;;;;;;-140.79;100.00;63287.88;5045893;28;20033;-58
2021/12/09 05:09:19;;;;;;;1337.38;999.90;;;;;;;-140.79;100.00;63287.88;5046642;28;20441;-55
2021/12/09 05:14:11;;;;;;;1346.57;999.90;;;;;;;-140.79;100.00;63287.88;5046400;28;20044;-56
2021/12/09 05:16:37;;;;;;;1359.35;999.90;;;;;;;-140.79;100.00;63287.88;5046329;28;20037;-59
2021/12/09 05:19:02;;;;;;;1358.70;999.90;;;;;;;-140.79;100.00;63287.88;5046402;28;20434;-58
2021/12/09 05:21:36;;;;;;;1365.95;999.90;;;;;;;-140.79;100.00;63287.88;5046449;28;20446;-59
2021/12/09 05:24:03;;;;;;;1348.45;999.90;;;;;;;-140.79;100.00;63287.88;5046024;28;20051;-64
2021/12/09 05:26:33;;;;;;;1342.32;999.90;;;;;;;-140.79;100.00;63287.88;5046771;28;20092;-56
2021/12/09 05:28:58;;;;;;;;;;;;;;;-140.79;100.00;63287.88;5047697;28;20033;-57
2021/12/09 05:34:12;;;;;;;1320.53;999.90;;;;;;;-140.79;100.00;63287.88;5047576;28;20043;-59
2021/12/09 05:36:37;;;;;;;1313.03;999.90;;;;;;;-140.79;100.00;63287.88;5046134;28;20510;-57
2021/12/09 05:39:04;;;;;;;1411.47;999.90;;;;;;;-140.79;100.00;63287.88;5045334;28;20036;-58
2021/12/09 05:41:30;;;;;;;1418.03;999.90;;;;;;;-140.79;100.00;63287.88;5045851;28;20028;-56
2021/12/09 05:43:56;;;;;;;1408.55;999.90;;;;;;;-140.79;100.00;63287.88;5046009;28;20102;-60
2021/12/09 05:46:22;;;;;;;1419.47;999.90;;;;;;;-140.79;100.00;63287.88;5045928;28;20558;-53
2021/12/09 05:48:49;;;;;;;1414.80;999.90;;;;;;;-140.79;100.00;63287.88;5045923;28;20045;-56
2021/12/09 05:51:15;;;;;;;1405.95;999.90;;;;;;;-140.79;100.00;63287.88;5045733;28;20124;-54
2021/12/09 05:53:40;;;;;;;1424.40;999.90;;;;;;;-140.79;100.00;63287.88;5045534;28;20096;-53
2021/12/09 05:56:05;;;;;;;1436.15;999.90;;;;;;;-140.79;100.00;63287.88;5045693;28;20025;-58
2021/12/09 05:58:31;;;;;;;1460.50;999.90;;;;;;;-140.79;100.00;63287.88;5045694;28;20114;-55
2021/12/09 06:00:56;;;;;;;1444.50;999.90;;;;;;;-140.79;100.00;63287.88;5045574;28;20033;-58
2021/12/09 06:03:22;;;;;;;1445.13;999.90;;;;;;;-140.79;100.00;63287.88;5045296;28;20036;-59
2021/12/09 06:05:49;;;;;;;1437.85;999.90;;;;;;;-140.79;100.00;63287.88;5032749;28;20052;-53
2021/12/09 06:08:15;;;;;;;1388.82;999.90;;;;;;;-140.79;100.00;63287.88;5025154;28;20431;-57
2021/12/09 06:10:40;;;;;;;1356.18;999.90;;;;;;;-140.79;100.00;63287.88;5025343;28;20033;-56
2021/12/09 06:13:06;;;;;;;1361.57;999.90;;;;;;;-140.79;100.00;63287.88;5030376;28;20653;-60
2021/12/09 06:15:31;;;;;;;1392.88;999.90;;;;;;;-140.79;100.00;63287.88;5044295;28;20039;-58
2021/12/09 06:17:57;;;;;;;1430.80;999.90;;;;;;;-140.79;100.00;63287.88;5042810;28;20064;-57
2021/12/09 06:20:24;;;;;;;1412.45;999.90;;;;;;;-140.79;100.00;63287.88;5031232;28;20037;-58
2021/12/09 06:22:49;;;;;;;1435.90;999.90;;;;;;;-140.79;100.00;63287.88;5024604;28;20163;-57
2021/12/09 06:25:18;;;;;;;1510.95;999.90;;;;;;;-140.79;100.00;63287.88;5028147;28;20029;-57
2021/12/09 06:27:48;;;;;;;1382.93;999.90;;;;;;;-140.79;100.00;63287.88;5024928;28;20083;-53
2021/12/09 06:30:14;;;;;;;1401.40;999.90;;;;;;;-140.79;100.00;63287.88;5039261;28;20196;-58
2021/12/09 06:32:40;;;;;;;1400.97;999.90;;;;;;;-140.79;100.00;63287.88;5044774;28;20571;-55
2021/12/09 06:35:06;;;;;;;1409.60;999.90;;;;;;;-140.79;100.00;63287.88;5044653;28;20071;-56
2021/12/09 06:37:32;;;;;;;1421.45;999.90;;;;;;;-140.79;100.00;63287.88;5045085;28;20033;-57
2021/12/09 06:39:57;;;;;;;1441.45;999.90;;;;;;;-140.79;100.00;63287.88;5028780;28;20069;-60
2021/12/09 06:42:23;;;;;;;1463.25;999.90;;;;;;;-140.79;100.00;63287.88;5033977;28;20030;-57
2021/12/09 06:44:48;;;;;;;1430.00;999.90;;;;;;;-140.79;100.00;63287.88;5036979;28;20029;-69
2021/12/09 06:47:14;;;;;;;1433.78;999.90;;;;;;;-140.79;100.00;63287.88;5044116;28;20060;-58
2021/12/09 06:49:39;;;;;;;1444.07;999.90;;;;;;;-140.79;100.00;63287.88;5043876;28;20067;-57
2021/12/09 06:52:05;;;;;;;1394.72;999.90;;;;;;;-140.79;100.00;63287.88;5029525;28;20041;-60
2021/12/09 06:54:30;;;;;;;1390.22;999.90;;;;;;;-140.79;100.00;63287.88;5040834;28;20132;-58
2021/12/09 06:56:56;;;;;;;1342.78;999.90;;;;;;;-140.79;100.00;63287.88;5042997;28;20021;-61
2021/12/09 06:59:21;;;;;;;1305.80;999.90;;;;;;;-140.79;100.00;63287.88;5043865;28;20797;-54
2021/12/09 07:01:47;;;;;;;1271.03;996.25;;;;;;;-140.79;100.00;63287.88;5043516;28;20079;-54
2021/12/09 07:04:12;;;;;;;1342.13;999.90;;;;;;;-140.79;100.00;63287.88;5043274;28;20075;-57
2021/12/09 07:06:38;;;;;;;1362.38;999.90;;;;;;;-140.79;100.00;63287.88;5037927;28;20021;-53
2021/12/09 07:09:04;;;;;;;1325.18;999.90;;;;;;;-140.79;100.00;63287.88;5042839;28;20033;-57
2021/12/09 07:11:31;;;;;;;1303.07;999.90;;;;;;;-140.79;100.00;63287.88;5039008;28;20025;-57
2021/12/09 07:13:56;;;;;;;1400.20;999.90;;;;;;;-140.79;100.00;63287.88;5031483;28;20030;-58
2021/12/09 07:16:22;;;;;;;1389.70;999.90;;;;;;;-140.79;100.00;63287.88;5033663;28;20029;-58
2021/12/09 07:18:48;;;;;;;1425.05;999.90;;;;;;;-140.79;100.00;63287.88;5042702;28;20487;-59
2021/12/09 07:21:13;;;;;;;1397.97;999.90;;;;;;;-140.79;100.00;63287.88;5043309;28;20053;-52
2021/12/09 07:23:39;;;;;;;1425.20;999.90;;;;;;;-140.79;100.00;63287.88;5043226;28;20104;-58
2021/12/09 07:26:04;;;;;;;1466.13;999.90;;;;;;;-140.79;100.00;63287.88;5043180;28;20029;-53
2021/12/09 07:28:29;;;;;;;1463.90;999.90;;;;;;;-140.79;100.00;63287.88;5041698;28;20028;-56
2021/12/09 07:30:55;;;;;;;1433.05;999.90;;;;;;;-140.79;100.00;63287.88;5032447;28;20033;-57
2021/12/09 07:33:20;;;;;;;1386.53;999.90;;;;;;;-140.79;100.00;63287.88;5031246;28;20028;-56
2021/12/09 07:35:46;;;;;;;1357.45;999.90;;;;;;;-140.79;100.00;63287.88;5038745;28;20119;-58
2021/12/09 07:38:11;;;;;;;1321.63;999.90;;;;;;;-140.79;100.00;63287.88;5042119;28;20029;-59
2021/12/09 07:40:37;;;;;;;1244.05;982.28;;;;;;;-140.79;100.00;63287.88;5026897;28;20029;-56
2021/12/09 07:43:03;;;;;;;1234.93;979.40;;;;;;;-140.79;100.00;63287.88;5038209;28;20044;-62
2021/12/09 07:45:29;;;;;;;1272.20;994.17;;;;;;;-140.79;100.00;63287.88;5037950;28;20021;-53
2021/12/09 07:47:54;;;;;;;1290.30;999.28;;;;;;;-140.79;100.00;63287.88;5029193;28;20606;-57
2021/12/09 07:50:21;;;;;;;1283.50;996.83;;;;;;;-140.79;100.00;63287.88;5026064;28;20018;-52
2021/12/09 07:52:48;;;;;;;1249.70;979.67;;;;;;;-140.79;100.00;63287.88;5041082;28;20048;-55
2021/12/09 07:55:14;;;;;;;1272.13;993.80;;;;;;;-140.79;100.00;63287.88;5025384;28;20553;-52
2021/12/09 07:57:40;;;;;;;1281.90;994.88;;;;;;;-140.79;100.00;63287.88;5025671;28;20031;-51
2021/12/09 08:00:07;;;;;;;1277.43;994.13;;;;;;;-140.79;100.00;63287.88;5024187;28;20095;-51
2021/12/09 08:02:32;;;;;;;1316.95;999.90;;;;;;;-140.79;100.00;63287.88;5026656;28;20076;-52
2021/12/09 08:04:58;;;;;;;1301.32;999.90;;;;;;;-140.79;100.00;63287.88;5028241;28;20029;-52
2021/12/09 08:07:24;;;;;;;1304.82;999.90;;;;;;;-140.79;100.00;63287.88;5027497;28;20464;-51
2021/12/09 08:09:51;;;;;;;1300.40;999.90;;;;;;;-140.79;100.00;63287.88;5028029;28;20096;-53
2021/12/09 08:12:17;;;;;;;1289.20;999.90;;;;;;;-140.79;100.00;63287.88;5028246;28;20017;-52
2021/12/09 08:14:42;;;;;;;1264.90;991.38;;;;;;;-140.79;100.00;63287.88;5029535;28;20026;-52
2021/12/09 08:19:52;;;;;;;1280.68;996.58;;;;;;;-140.79;100.00;63287.88;5027059;28;20120;-53
2021/12/09 08:22:18;;;;;;;1293.28;999.90;;;;;;;-140.79;100.00;63287.88;5041609;28;20028;-53
2021/12/09 08:24:43;;;;;;;1309.50;999.90;;;;;;;-140.79;100.00;63287.88;5029224;28;20029;-52
2021/12/09 08:27:08;;;;;;;1331.65;999.90;;;;;;;-140.79;100.00;63287.88;5027899;28;20017;-52
2021/12/09 08:29:34;;;;;;;1297.90;999.90;;;;;;;-140.79;100.00;63287.88;5027666;28;20030;-51
2021/12/09 08:31:59;;;;;;;1307.43;999.90;;;;;;;-140.79;100.00;63287.88;5028020;28;20033;-51
2021/12/09 08:34:25;;;;;;;1314.93;999.90;;;;;;;-140.79;100.00;63287.88;5027539;28;20372;-55
2021/12/09 08:36:50;;;;;;;1286.43;999.90;;;;;;;-140.79;100.00;63287.88;5028740;28;20411;-52
2021/12/09 08:39:17;;;;;;;1254.75;982.80;;;;;;;-140.79;100.00;63287.88;5027851;28;20018;-52
2021/12/09 08:41:43;;;;;;;1245.20;979.70;;;;;;;-140.79;100.00;63287.88;5027585;28;20462;-55
2021/12/09 08:44:09;;;;;;;1273.68;994.80;;;;;;;-140.79;100.00;63287.88;5027766;28;20021;-52
2021/12/09 08:46:34;;;;;;;1246.47;978.67;;;;;;;-140.79;100.00;63287.88;5027698;28;20823;-55
2021/12/09 08:49:00;;;;;;;1242.72;980.30;;;;;;;-140.79;100.00;63287.88;5028091;28;20029;-55
2021/12/09 08:51:25;;;;;;;1248.68;987.10;;;;;;;-140.79;100.00;63287.88;5029413;28;20225;-55
2021/12/09 08:53:52;;;;;;;1354.65;999.90;;;;;;;-140.79;100.00;63287.88;5026233;28;20466;-54
2021/12/09 08:56:17;;;;;;;1317.95;999.90;;;;;;;-140.79;100.00;63287.88;5026792;28;20045;-54
2021/12/09 08:58:43;;;;;;;1342.38;999.90;;;;;;;-140.79;100.00;63287.88;5028007;28;20041;-53
2021/12/09 09:01:12;;;;;;;1334.45;999.90;;;;;;;-140.79;100.00;63287.88;5027116;28;20476;-56
2021/12/09 09:03:37;;;;;;;1343.97;999.90;;;;;;;-140.79;100.00;63287.88;5028403;28;20055;-53
2021/12/09 09:06:03;;;;;;;1330.72;999.90;;;;;;;-140.79;100.00;63287.88;5027563;28;20482;-57
2021/12/09 09:08:28;;;;;;;1339.55;999.90;;;;;;;-140.79;100.00;63287.88;5026824;28;20029;-55
2021/12/09 09:10:54;;;;;;;1356.97;999.90;;;;;;;-140.79;100.00;63287.88;5027893;28;20037;-55
2021/12/09 09:13:19;;;;;;;1362.63;999.90;;;;;;;-140.79;100.00;63287.88;5026288;28;20030;-55
2021/12/09 09:15:48;;;;;;;1423.40;999.90;;;;;;;-140.79;100.00;63287.88;5026968;28;20057;-55
2021/12/09 09:18:14;;;;;;;1367.70;999.90;;;;;;;-140.79;100.00;63287.88;5026567;28;20037;-56
2021/12/09 09:20:39;;;;;;;1400.82;999.90;;;;;;;-140.79;100.00;63287.88;5026490;28;20025;-54
2021/12/09 09:23:10;;;;;;;1443.18;999.90;;;;;;;-140.79;100.00;63287.88;5025742;28;20025;-54
2021/12/09 09:25:36;;;;;;;1471.25;999.90;;;;;;;-140.79;100.00;63287.88;5025773;28;20022;-55
2021/12/09 09:28:01;;;;;;;1475.25;999.90;;;;;;;-140.79;100.00;63287.88;5025442;28;20022;-54
2021/12/09 09:30:34;;;;;;;1486.18;999.90;;;;;;;-140.79;100.00;63287.88;5028259;28;20091;-54
2021/12/09 09:33:00;;;;;;;1436.78;999.90;;;;;;;-140.79;100.00;63287.88;5028335;28;20518;-54
2021/12/09 09:35:25;;;;;;;1394.22;999.90;;;;;;;-140.79;100.00;63287.88;5031126;28;20025;-54
2021/12/09 09:37:51;;;;;;;1379.13;999.90;;;;;;;-140.79;100.00;63287.88;5021486;28;20030;-58
2021/12/09 09:40:17;;;;;;;1350.18;999.90;;;;;;;-140.79;100.00;63287.88;5027555;28;21423;-54
2021/12/09 09:45:10;;;;;;;1367.18;999.90;;;;;;;-140.79;100.00;63287.88;5036142;28;20032;-65
2021/12/09 09:47:36;;;;;;;1344.53;999.90;;;;;;;-140.79;100.00;63287.88;5025598;28;20044;-54
2021/12/09 09:50:02;;;;;;;1311.45;999.90;;;;;;;-140.79;100.00;63287.88;5036443;28;20037;-55
2021/12/09 09:54:54;;;;;;;1282.40;999.63;;;;;;;;;;5040364;28;20414;-57
2021/12/09 09:57:20;;;;;;;1274.25;998.60;;;;;;;;;;5035583;28;20025;-56
2021/12/09 09:59:45;;;;;;;1317.68;999.90;;;;;;;;;;5036652;28;20028;-53
2021/12/09 10:02:10;;;;;;;1304.87;999.90;;;;;;;;;;5033401;28;20491;-56
2021/12/09 10:07:04;;;;;;;1304.60;999.90;;;;;;;;;;5042156;28;20022;-54
2021/12/09 10:09:29;;;;;;;1300.15;999.90;;;;;;;;;;5041470;28;20387;-53
2021/12/09 10:11:55;;;;;;;1300.07;999.90;;;;;;;;;;5041325;28;20529;-58
2021/12/09 10:14:21;;;;;;;1290.78;999.90;;;;;;;;;;5030556;28;20562;-55
2021/12/09 10:16:59;;;;;;;1273.75;998.45;;;;;;;;;;5037557;28;20057;-55
2021/12/09 10:19:24;;;;;;;1294.78;999.90;;;;;;;;;;5034279;28;20033;-55
2021/12/09 10:21:50;;;;;;;1308.10;999.90;;;;;;;;;;5036763;28;20041;-53
2021/12/09 10:24:16;;;;;;;1323.63;999.90;;;;;;;;;;5032192;28;20272;-54
2021/12/09 10:26:44;;;;;;;1336.20;999.90;;;;;;;;;;5041263;28;20035;-55
2021/12/09 10:29:10;;;;;;;1349.30;999.90;;;;;;;;;;5040260;28;20021;-52
2021/12/09 10:31:39;;;;;;;1378.95;999.90;;;;;;;;;;5040998;28;20473;-53
2021/12/09 10:34:36;;;;;;;1375.33;999.90;;;;;;;;;;5040937;28;20099;-54
2021/12/09 10:37:20;;;;;;;1354.40;999.90;;;;;;;;;;5040237;28;20272;-52
2021/12/09 10:39:52;;;;;;;1365.88;999.90;;;;;;;;;;5040228;28;20037;-52
2021/12/09 10:42:19;;;;;;;1370.18;999.90;;;;;;;;;;5032317;28;20024;-53
2021/12/09 10:44:45;;;;;;;1364.88;999.90;;;;;;;;;;5027625;28;20028;-52
2021/12/09 10:47:14;;;;;;;1097.47;876.95;;;;;;;;;;5033168;28;20033;-53
2021/12/09 10:49:41;;;;;;;1396.00;999.90;;;;;;;;;;5040260;28;20036;-53
2021/12/09 10:52:20;;;;;;;1272.95;988.78;;;;;;;;;;5040026;28;20091;-53
2021/12/09 10:54:45;;;;;;;1342.80;999.90;;;;;;;;;;5031346;28;20046;-53
2021/12/09 10:57:30;;;;;;;1546.60;999.90;;;;;;;;;;5032232;28;20024;-55
2021/12/09 10:59:55;;;;;;;1490.57;999.90;;;;;;;;;;5022809;28;20100;-54